Time;durP1;ratioP1;P1;durP2;ratioP2;P2;SDS_P1;SDS_P2;PMS_P1;PMS_P2;Temp;Humidity;BMP_temperature;BMP_pressure;BME280_temperature;BME280_humidity;BME280_pressure;Samples;Min_cycle;Max_cycle;Signal;HPM_P1;HPM_P2
2022/07/15 03:02:42;;;;;;;0.70;0.60;;;21.40;56.60;;;;;;5095554;23;20517;-76
2022/07/15 03:05:11;;;;;;;0.70;0.60;;;21.30;56.50;;;;;;4957157;29;20849;-76
2022/07/15 03:07:38;;;;;;;0.90;0.80;;;21.20;56.60;;;;;;4957591;29;20891;-76
2022/07/15 03:10:05;;;;;;;0.70;0.63;;;21.20;56.50;;;;;;4957600;29;20443;-76
2022/07/15 03:12:32;;;;;;;0.70;0.63;;;21.20;56.80;;;;;;4957463;28;20526;-76
2022/07/15 03:15:00;;;;;;;0.70;0.60;;;21.20;56.80;;;;;;4959212;29;20502;-76
2022/07/15 03:17:27;;;;;;;0.70;0.63;;;21.20;56.70;;;;;;4957591;29;20443;-76
2022/07/15 03:19:56;;;;;;;0.70;0.60;;;21.20;56.60;;;;;;4957561;29;20493;-76
2022/07/15 03:22:22;;;;;;;0.73;0.60;;;21.20;56.40;;;;;;4957090;29;20549;-76
2022/07/15 03:24:49;;;;;;;0.93;0.70;;;21.20;56.60;;;;;;4957540;29;20816;-76
2022/07/15 03:27:16;;;;;;;0.80;0.70;;;21.10;56.80;;;;;;4957284;29;20467;-77
2022/07/15 03:29:43;;;;;;;0.80;0.60;;;21.00;57.00;;;;;;4957140;29;20443;-76
2022/07/15 03:32:11;;;;;;;0.70;0.60;;;21.10;57.20;;;;;;4957286;29;20530;-76
2022/07/15 03:34:38;;;;;;;0.70;0.60;;;21.00;57.30;;;;;;4957121;29;20505;-76
2022/07/15 03:37:06;;;;;;;0.70;0.60;;;21.00;57.20;;;;;;4957059;29;20506;-76
2022/07/15 03:39:32;;;;;;;1.10;0.70;;;20.90;57.40;;;;;;4956615;29;20990;-77
2022/07/15 03:41:59;;;;;;;0.80;0.70;;;20.90;57.50;;;;;;4957034;29;20471;-76
2022/07/15 03:44:26;;;;;;;0.70;0.60;;;20.90;57.50;;;;;;4957049;29;20443;-76
2022/07/15 03:46:52;;;;;;;0.70;0.70;;;20.90;57.50;;;;;;4956707;29;20458;-76
2022/07/15 03:49:19;;;;;;;0.70;0.60;;;20.90;57.40;;;;;;4956878;29;20459;-76
2022/07/15 03:51:46;;;;;;;0.73;0.70;;;20.90;57.50;;;;;;4956776;29;20466;-76
2022/07/15 03:54:14;;;;;;;0.80;0.70;;;20.90;57.30;;;;;;4956553;29;20450;-76
2022/07/15 03:56:41;;;;;;;0.70;0.60;;;20.80;57.40;;;;;;4956123;28;20871;-76
2022/07/15 03:59:08;;;;;;;0.70;0.60;;;20.80;57.50;;;;;;4956537;29;20459;-76
2022/07/15 04:01:35;;;;;;;0.70;0.67;;;20.90;57.70;;;;;;4956533;29;20498;-76
2022/07/15 04:04:02;;;;;;;0.70;0.60;;;20.80;58.10;;;;;;4956761;29;20487;-76
2022/07/15 04:06:29;;;;;;;0.80;0.70;;;20.80;57.80;;;;;;4956805;29;20462;-76
2022/07/15 04:08:55;;;;;;;0.70;0.60;;;20.70;58.40;;;;;;4956500;29;20454;-76
2022/07/15 04:11:23;;;;;;;0.70;0.60;;;20.80;58.10;;;;;;4956663;29;20463;-76
2022/07/15 04:13:50;;;;;;;1.03;0.60;;;20.80;58.10;;;;;;4957156;29;20473;-76
2022/07/15 04:16:17;;;;;;;0.70;0.50;;;20.90;58.40;;;;;;4956425;29;20462;-76
2022/07/15 04:18:44;;;;;;;0.80;0.77;;;21.00;58.40;;;;;;4956682;28;20451;-76
2022/07/15 04:21:11;;;;;;;0.70;0.60;;;21.00;58.30;;;;;;4956193;29;20917;-76
2022/07/15 04:23:38;;;;;;;1.00;0.60;;;21.10;58.30;;;;;;4956323;29;20875;-77
2022/07/15 04:26:05;;;;;;;0.80;0.60;;;21.10;58.30;;;;;;4956383;29;20498;-76
2022/07/15 04:28:33;;;;;;;0.70;0.60;;;21.20;58.30;;;;;;4956144;29;20451;-79
2022/07/15 04:31:00;;;;;;;0.70;0.60;;;21.10;58.60;;;;;;4955451;29;20813;-77
2022/07/15 04:33:26;;;;;;;0.77;0.67;;;21.20;58.70;;;;;;4955720;29;20510;-77
2022/07/15 04:35:54;;;;;;;1.00;0.70;;;21.20;58.70;;;;;;4955678;29;20447;-77
2022/07/15 04:38:21;;;;;;;0.80;0.70;;;21.20;58.90;;;;;;4955293;29;21009;-77
2022/07/15 04:40:47;;;;;;;0.70;0.60;;;21.30;58.90;;;;;;4955483;29;20558;-77
2022/07/15 04:43:14;;;;;;;1.10;0.70;;;21.40;59.00;;;;;;4955606;29;20482;-77
2022/07/15 04:45:42;;;;;;;0.70;0.60;;;21.50;58.80;;;;;;4955894;29;20474;-78
2022/07/15 04:50:51;;;;;;;0.73;0.73;;;21.60;58.80;;;;;;4954883;29;20478;-78
2022/07/15 04:53:18;;;;;;;0.80;0.70;;;21.70;57.90;;;;;;4955587;29;20431;-78
2022/07/15 04:55:45;;;;;;;0.70;0.60;;;21.80;58.30;;;;;;4955463;29;20522;-78
2022/07/15 04:58:14;;;;;;;0.80;0.60;;;21.90;58.20;;;;;;4955438;29;20506;-78
2022/07/15 05:00:42;;;;;;;0.90;0.70;;;22.00;56.90;;;;;;4955178;29;20482;-78
2022/07/15 05:03:08;;;;;;;0.80;0.60;;;22.10;56.80;;;;;;4955423;29;20470;-78
2022/07/15 05:05:35;;;;;;;0.80;0.80;;;22.20;55.70;;;;;;4955345;29;20510;-78
2022/07/15 05:08:02;;;;;;;0.83;0.60;;;22.30;56.30;;;;;;4954891;29;20497;-78
2022/07/15 05:10:28;;;;;;;0.70;0.60;;;22.40;55.70;;;;;;4955195;29;20490;-78
2022/07/15 05:12:55;;;;;;;1.00;0.73;;;22.50;55.20;;;;;;4955290;29;20451;-78
2022/07/15 05:15:22;;;;;;;1.53;0.90;;;22.60;55.00;;;;;;4954954;29;21013;-78
2022/07/15 05:17:50;;;;;;;0.90;0.70;;;22.70;54.10;;;;;;4955455;29;20486;-78
2022/07/15 05:20:16;;;;;;;0.80;0.70;;;22.90;53.90;;;;;;4954838;29;21025;-78
2022/07/15 05:22:43;;;;;;;0.80;0.70;;;23.00;53.70;;;;;;4955170;29;20471;-78
2022/07/15 05:25:10;;;;;;;1.10;0.90;;;23.10;53.10;;;;;;4955135;29;20450;-78
2022/07/15 05:28:31;;;;;;;0.70;0.60;;;23.20;53.70;;;;;;4955151;29;20506;-78
2022/07/15 05:30:58;;;;;;;0.70;0.60;;;23.30;54.10;;;;;;4913798;28;20463;-79
2022/07/15 05:33:26;;;;;;;0.70;0.67;;;23.40;54.30;;;;;;4954827;29;20804;-78
2022/07/15 05:35:52;;;;;;;0.80;0.80;;;23.50;54.00;;;;;;4955021;29;20514;-78
2022/07/15 05:38:19;;;;;;;0.70;0.60;;;23.40;51.30;;;;;;4955000;29;20502;-78
2022/07/15 05:40:46;;;;;;;0.70;0.60;;;23.00;50.60;;;;;;4954845;29;20561;-78
2022/07/15 05:43:12;;;;;;;0.70;0.70;;;23.10;51.50;;;;;;4954636;29;21013;-78
2022/07/15 05:45:39;;;;;;;0.80;0.70;;;23.00;50.50;;;;;;4954894;29;20551;-78
2022/07/15 05:48:06;;;;;;;1.63;0.70;;;23.00;50.10;;;;;;4955070;29;20451;-79
2022/07/15 05:50:34;;;;;;;1.57;0.70;;;22.70;51.70;;;;;;4955189;29;20872;-79
2022/07/15 05:53:01;;;;;;;0.70;0.60;;;22.80;51.60;;;;;;4955332;28;20658;-78
2022/07/15 05:55:28;;;;;;;0.70;0.60;;;22.90;51.20;;;;;;4955295;29;20455;-78
2022/07/15 05:57:55;;;;;;;0.70;0.70;;;22.90;51.10;;;;;;4955527;29;20802;-79
2022/07/15 06:00:21;;;;;;;0.97;0.70;;;23.00;50.10;;;;;;4956072;29;20479;-79
2022/07/15 06:02:48;;;;;;;0.90;0.60;;;23.00;51.80;;;;;;4955854;29;20459;-79
2022/07/15 06:05:15;;;;;;;0.80;0.70;;;23.50;52.20;;;;;;4955974;29;20455;-79
2022/07/15 06:07:43;;;;;;;0.70;0.60;;;23.60;51.10;;;;;;4954833;29;20458;-78
2022/07/15 06:10:10;;;;;;;0.70;0.60;;;23.50;50.30;;;;;;4955083;29;20458;-79
2022/07/15 06:12:37;;;;;;;0.90;0.60;;;23.40;49.80;;;;;;4954829;29;20990;-78
2022/07/15 06:15:05;;;;;;;0.70;0.60;;;23.20;49.30;;;;;;4955223;29;20450;-79
2022/07/15 06:17:33;;;;;;;0.73;0.60;;;23.40;49.80;;;;;;4955565;29;20462;-79
2022/07/15 06:20:00;;;;;;;0.70;0.60;;;23.30;47.40;;;;;;4955917;28;20458;-78
2022/07/15 06:22:27;;;;;;;0.70;0.60;;;23.00;49.90;;;;;;4958995;29;21025;-79
2022/07/15 06:24:55;;;;;;;0.80;0.80;;;23.20;48.20;;;;;;4958122;29;20454;-78
2022/07/15 06:27:22;;;;;;;0.70;0.60;;;23.00;48.60;;;;;;4957951;29;20447;-78
2022/07/15 06:29:49;;;;;;;0.80;0.70;;;23.00;48.50;;;;;;4957939;29;20533;-77
2022/07/15 06:32:15;;;;;;;0.80;0.60;;;23.10;47.20;;;;;;4957463;29;20462;-77
2022/07/15 06:34:42;;;;;;;0.70;0.60;;;23.00;47.80;;;;;;4957810;29;20451;-76
2022/07/15 06:37:09;;;;;;;0.97;0.60;;;23.10;48.90;;;;;;4957799;29;20505;-76
2022/07/15 06:39:35;;;;;;;1.00;0.70;;;23.10;48.50;;;;;;4957733;29;20455;-76
2022/07/15 06:42:04;;;;;;;0.70;0.70;;;23.30;47.90;;;;;;4957643;29;20487;-76
2022/07/15 06:44:31;;;;;;;0.60;0.60;;;23.30;48.20;;;;;;4957732;29;20466;-76
2022/07/15 06:46:57;;;;;;;0.80;0.70;;;23.20;47.70;;;;;;4957324;29;20923;-76
2022/07/15 06:49:24;;;;;;;0.73;0.60;;;23.00;48.30;;;;;;4957738;29;20450;-78
2022/07/15 06:51:51;;;;;;;1.00;0.70;;;22.90;48.40;;;;;;4957558;29;20467;-77
2022/07/15 06:54:18;;;;;;;0.70;0.60;;;22.80;48.60;;;;;;4957482;29;20505;-77
2022/07/15 06:56:45;;;;;;;0.80;0.50;;;23.10;49.10;;;;;;4957662;29;20540;-78
2022/07/15 06:59:13;;;;;;;0.70;0.60;;;23.20;47.30;;;;;;4958944;29;20451;-77
2022/07/15 07:01:40;;;;;;;0.90;0.70;;;23.50;48.60;;;;;;4958082;29;20545;-78
2022/07/15 07:04:07;;;;;;;1.13;0.70;;;23.90;47.00;;;;;;4957550;29;20450;-78
2022/07/15 07:06:33;;;;;;;0.80;0.77;;;24.00;48.00;;;;;;4957515;29;20462;-78
2022/07/15 07:09:00;;;;;;;1.00;0.70;;;24.30;48.40;;;;;;4957230;29;20463;-78
2022/07/15 07:11:27;;;;;;;0.70;0.70;;;24.30;47.40;;;;;;4957172;29;20466;-77
2022/07/15 07:13:54;;;;;;;1.73;0.80;;;24.20;45.80;;;;;;4957119;29;20498;-78
2022/07/15 07:16:22;;;;;;;0.80;0.60;;;24.00;47.70;;;;;;4957066;29;20876;-77
2022/07/15 07:18:50;;;;;;;0.70;0.50;;;24.10;46.60;;;;;;4957391;29;20451;-78
2022/07/15 07:21:17;;;;;;;1.10;0.70;;;23.90;45.30;;;;;;4956957;29;20498;-78
2022/07/15 07:23:43;;;;;;;0.70;0.60;;;23.80;46.90;;;;;;4957097;29;20450;-77
2022/07/15 07:26:11;;;;;;;0.80;0.70;;;24.00;45.10;;;;;;4957776;29;20455;-81
2022/07/15 07:28:40;;;;;;;0.93;0.60;;;23.90;46.10;;;;;;4957608;29;20502;-78
2022/07/15 07:31:07;;;;;;;0.60;0.50;;;24.20;47.50;;;;;;4960998;28;20562;-78
2022/07/15 07:33:35;;;;;;;1.20;0.70;;;24.10;46.60;;;;;;4959595;29;20505;-78
2022/07/15 07:36:02;;;;;;;0.70;0.60;;;24.40;45.40;;;;;;4962999;29;20446;-80
2022/07/15 07:38:29;;;;;;;0.70;0.50;;;24.60;46.40;;;;;;4959537;28;20957;-80
2022/07/15 07:40:56;;;;;;;0.70;0.60;;;24.20;43.70;;;;;;4958354;29;20542;-77
2022/07/15 07:43:23;;;;;;;0.70;0.70;;;23.80;46.00;;;;;;4962011;29;20860;-77
2022/07/15 07:45:50;;;;;;;0.70;0.60;;;24.10;47.20;;;;;;4958053;29;20447;-78
2022/07/15 07:48:17;;;;;;;1.00;0.60;;;24.10;45.10;;;;;;4959137;29;20881;-79
2022/07/15 07:50:46;;;;;;;1.00;0.70;;;23.80;46.40;;;;;;4960396;29;20467;-78
2022/07/15 07:53:13;;;;;;;0.70;0.63;;;23.80;45.60;;;;;;4957243;29;20864;-77
2022/07/15 07:55:40;;;;;;;1.23;0.60;;;23.80;46.60;;;;;;4958698;29;20458;-78
2022/07/15 07:58:07;;;;;;;0.70;0.70;;;24.10;47.40;;;;;;4956251;29;20872;-76
2022/07/15 08:00:36;;;;;;;1.37;0.70;;;24.30;46.60;;;;;;4956078;29;20486;-77
2022/07/15 08:03:03;;;;;;;0.70;0.70;;;24.40;46.60;;;;;;4957476;29;20447;-77
2022/07/15 08:05:30;;;;;;;0.80;0.80;;;24.60;47.00;;;;;;4956201;29;20850;-76
2022/07/15 08:08:12;;;;;;;0.70;0.60;;;24.70;46.90;;;;;;4956464;29;20447;-75
2022/07/15 08:10:39;;;;;;;0.80;0.70;;;25.00;44.80;;;;;;4956355;28;21027;-76
2022/07/15 08:13:05;;;;;;;0.70;0.57;;;24.90;46.40;;;;;;4956472;29;20447;-77
2022/07/15 08:15:32;;;;;;;0.73;0.60;;;25.10;45.50;;;;;;4956223;29;20506;-77
2022/07/15 08:18:00;;;;;;;0.70;0.63;;;25.20;45.40;;;;;;4956329;29;20442;-76
2022/07/15 08:20:26;;;;;;;0.70;0.67;;;25.00;46.00;;;;;;4956117;29;20534;-76
2022/07/15 08:22:58;;;;;;;0.60;0.50;;;25.10;45.20;;;;;;4956113;29;20486;-77
2022/07/15 08:25:27;;;;;;;0.70;0.60;;;25.30;44.70;;;;;;4956424;29;20449;-77
2022/07/15 08:27:54;;;;;;;0.70;0.60;;;25.70;44.00;;;;;;4956405;28;20517;-77
2022/07/15 08:30:21;;;;;;;0.80;0.73;;;25.50;44.10;;;;;;4956092;29;20450;-76
2022/07/15 08:32:48;;;;;;;0.80;0.67;;;25.70;43.90;;;;;;4956479;29;20475;-77
2022/07/15 08:35:15;;;;;;;0.70;0.60;;;25.80;45.00;;;;;;4955989;29;20451;-77
2022/07/15 08:37:42;;;;;;;0.80;0.60;;;26.10;44.10;;;;;;4955974;29;20450;-76
2022/07/15 08:40:10;;;;;;;0.70;0.60;;;25.90;45.40;;;;;;4955293;29;21028;-77
2022/07/15 08:42:42;;;;;;;0.80;0.60;;;26.10;44.70;;;;;;4954921;28;20486;-77
2022/07/15 08:45:09;;;;;;;1.63;0.80;;;25.80;44.30;;;;;;4956268;29;20449;-77
2022/07/15 08:47:38;;;;;;;0.70;0.60;;;25.80;44.10;;;;;;4956506;29;20501;-77
2022/07/15 08:50:06;;;;;;;0.90;0.60;;;26.10;43.80;;;;;;4956054;29;20454;-76
2022/07/15 08:52:34;;;;;;;0.90;0.60;;;26.30;43.20;;;;;;4955669;29;20471;-76
2022/07/15 08:55:01;;;;;;;1.33;0.60;;;26.40;43.40;;;;;;4955886;29;20447;-77
2022/07/15 08:57:28;;;;;;;0.70;0.60;;;25.80;44.00;;;;;;4955383;29;20446;-77
2022/07/15 08:59:56;;;;;;;0.70;0.70;;;25.70;43.70;;;;;;4955383;29;20442;-76
2022/07/15 09:02:23;;;;;;;0.80;0.67;;;25.70;44.30;;;;;;4954974;29;20500;-76
2022/07/15 09:05:22;;;;;;;0.70;0.63;;;25.30;44.10;;;;;;4955425;29;20501;-76
2022/07/15 09:07:54;;;;;;;0.70;0.60;;;25.70;44.90;;;;;;4955276;29;20450;-74
2022/07/15 09:10:22;;;;;;;0.70;0.60;;;25.60;44.30;;;;;;4955293;29;20446;-75
2022/07/15 09:12:53;;;;;;;0.70;0.70;;;25.20;44.80;;;;;;4955258;29;20537;-76
2022/07/15 09:15:34;;;;;;;0.70;0.60;;;25.30;45.50;;;;;;4956588;29;20486;-75
2022/07/15 09:18:07;;;;;;;0.70;0.70;;;25.20;44.20;;;;;;4955233;29;20435;-76
2022/07/15 09:20:34;;;;;;;0.70;0.60;;;24.90;45.00;;;;;;4954854;28;20542;-76
2022/07/15 09:23:01;;;;;;;0.80;0.70;;;24.80;46.40;;;;;;4954713;29;20836;-73
2022/07/15 09:25:29;;;;;;;0.70;0.60;;;24.80;45.60;;;;;;4954764;29;20794;-74
2022/07/15 09:27:57;;;;;;;0.70;0.70;;;24.80;45.60;;;;;;4954758;29;20451;-74
2022/07/15 09:36:20;;;;;;;0.70;0.63;;;25.70;47.20;;;;;;4955314;29;20811;-74
2022/07/15 09:38:49;;;;;;;0.70;0.50;;;26.10;45.60;;;;;;4949869;28;20447;-75
2022/07/15 09:41:26;;;;;;;0.77;0.60;;;26.50;43.80;;;;;;4955467;29;20475;-74
2022/07/15 09:43:54;;;;;;;0.70;0.60;;;26.70;44.40;;;;;;4955502;29;20431;-73
2022/07/15 09:46:22;;;;;;;0.80;0.70;;;26.40;44.50;;;;;;4954782;29;20451;-74
2022/07/15 09:48:52;;;;;;;0.70;0.67;;;26.10;44.60;;;;;;4955126;29;20451;-73
2022/07/15 09:51:19;;;;;;;0.70;0.60;;;25.80;45.80;;;;;;4955028;29;20474;-74
2022/07/15 09:53:46;;;;;;;0.70;0.60;;;25.60;44.30;;;;;;4955401;28;21001;-74
2022/07/15 09:56:14;;;;;;;0.70;0.60;;;25.60;45.60;;;;;;4958333;29;20942;-74
2022/07/15 09:58:42;;;;;;;0.77;0.73;;;25.60;46.30;;;;;;4958607;29;20450;-74
2022/07/15 10:01:10;;;;;;;0.70;0.60;;;25.70;46.10;;;;;;4958067;29;20541;-74
2022/07/15 10:03:38;;;;;;;0.70;0.60;;;25.70;44.20;;;;;;4958409;29;20510;-74
2022/07/15 10:06:07;;;;;;;0.70;0.63;;;25.60;44.80;;;;;;4958308;29;20482;-74
2022/07/15 10:08:35;;;;;;;0.70;0.60;;;25.70;45.70;;;;;;4958264;29;20455;-75
2022/07/15 10:11:09;;;;;;;0.70;0.60;;;25.80;45.70;;;;;;4958116;29;20478;-74
2022/07/15 10:14:23;;;;;;;0.70;0.67;;;25.70;44.70;;;;;;4957983;29;20906;-74
2022/07/15 10:17:08;;;;;;;0.77;0.67;;;25.60;46.40;;;;;;4958146;29;20435;-75
2022/07/15 10:20:10;;;;;;;0.80;0.70;;;25.70;46.90;;;;;;4958159;28;20471;-75
2022/07/15 10:22:50;;;;;;;0.80;0.80;;;25.80;44.90;;;;;;4957908;29;20892;-74
2022/07/15 10:25:26;;;;;;;0.70;0.60;;;25.90;45.10;;;;;;4958008;29;20434;-74
2022/07/15 10:28:05;;;;;;;0.80;0.60;;;26.00;45.70;;;;;;4958008;29;20452;-76
2022/07/15 10:30:32;;;;;;;0.70;0.70;;;26.20;44.40;;;;;;4957890;29;20431;-74
2022/07/15 10:33:13;;;;;;;0.70;0.60;;;26.70;44.20;;;;;;4957907;28;20447;-75
2022/07/15 10:35:42;;;;;;;0.70;0.60;;;27.10;43.20;;;;;;4958374;29;20534;-73
2022/07/15 10:38:28;;;;;;;0.70;0.60;;;27.30;43.70;;;;;;4957739;29;20450;-74
2022/07/15 10:41:04;;;;;;;0.77;0.60;;;27.70;42.30;;;;;;4957657;29;20474;-74
2022/07/15 10:43:43;;;;;;;1.40;0.80;;;28.00;42.60;;;;;;4957595;29;20835;-74
2022/07/15 10:46:21;;;;;;;0.80;0.63;;;28.00;42.80;;;;;;4957624;29;20447;-74
2022/07/15 10:48:50;;;;;;;0.70;0.70;;;28.20;42.20;;;;;;4957553;29;20454;-75
2022/07/15 10:51:44;;;;;;;0.90;0.80;;;28.20;41.80;;;;;;4957418;28;20510;-74
2022/07/15 10:54:41;;;;;;;0.77;0.63;;;28.30;40.60;;;;;;4957466;28;20431;-75
2022/07/15 10:57:08;;;;;;;0.70;0.60;;;27.70;43.00;;;;;;4957468;28;20459;-73
2022/07/15 10:59:47;;;;;;;0.80;0.60;;;27.50;42.80;;;;;;4957060;29;20919;-74
2022/07/15 11:02:16;;;;;;;0.80;0.70;;;27.90;42.30;;;;;;4957155;29;20491;-74
2022/07/15 11:04:44;;;;;;;0.70;0.60;;;27.90;43.30;;;;;;4957617;28;20882;-74
2022/07/15 11:07:21;;;;;;;1.10;0.60;;;28.00;42.60;;;;;;4956873;29;20451;-73
2022/07/15 11:09:51;;;;;;;1.10;0.70;;;27.60;42.00;;;;;;4957439;29;20502;-74
2022/07/15 11:12:20;;;;;;;0.70;0.70;;;27.40;43.50;;;;;;4957343;29;20874;-72
2022/07/15 11:14:50;;;;;;;0.70;0.53;;;27.20;42.80;;;;;;4957072;29;20459;-76
2022/07/15 11:17:20;;;;;;;0.80;0.67;;;27.40;42.30;;;;;;4957046;29;20455;-76
2022/07/15 11:19:49;;;;;;;1.00;0.80;;;27.60;43.30;;;;;;4957046;29;20451;-77
2022/07/15 11:22:17;;;;;;;0.70;0.60;;;27.90;42.90;;;;;;4956947;28;20537;-74
2022/07/15 11:24:45;;;;;;;0.70;0.63;;;28.30;41.60;;;;;;4956901;29;20542;-75
2022/07/15 11:27:13;;;;;;;0.70;0.60;;;28.20;41.50;;;;;;4956837;29;20483;-74
2022/07/15 11:29:50;;;;;;;0.93;0.60;;;28.00;43.10;;;;;;4956522;29;20919;-76
2022/07/15 11:32:19;;;;;;;0.70;0.60;;;27.80;42.60;;;;;;4957459;29;20463;-77
2022/07/15 11:34:48;;;;;;;1.07;0.70;;;27.80;43.40;;;;;;4959245;29;20455;-79
2022/07/15 11:37:19;;;;;;;0.70;0.70;;;28.00;41.30;;;;;;4959346;29;20447;-78
2022/07/15 11:39:47;;;;;;;0.70;0.60;;;28.30;41.70;;;;;;4961269;28;20493;-79
2022/07/15 11:45:09;;;;;;;0.90;0.80;;;28.40;42.10;;;;;;4958756;29;20411;-78
2022/07/15 11:47:36;;;;;;;0.93;0.70;;;28.60;43.10;;;;;;4957627;29;20529;-78
2022/07/15 11:50:05;;;;;;;0.80;0.63;;;28.90;42.40;;;;;;4957475;29;20550;-78
2022/07/15 11:52:32;;;;;;;0.80;0.70;;;29.00;40.00;;;;;;4957950;28;20498;-79
2022/07/15 11:54:58;;;;;;;0.70;0.60;;;29.10;40.10;;;;;;4957634;29;20455;-78
2022/07/15 11:57:33;;;;;;;0.83;0.70;;;29.20;40.50;;;;;;4957962;29;20946;-78
2022/07/15 12:00:00;;;;;;;0.70;0.67;;;28.90;39.70;;;;;;4958554;28;20474;-78
2022/07/15 12:02:28;;;;;;;0.70;0.60;;;28.70;41.80;;;;;;4958127;29;20995;-78
2022/07/15 12:05:04;;;;;;;0.70;0.60;;;28.30;40.50;;;;;;4957034;29;20447;-77
2022/07/15 12:07:43;;;;;;;0.70;0.60;;;28.10;42.20;;;;;;4957416;29;20442;-78
2022/07/15 12:10:11;;;;;;;1.23;0.70;;;28.10;41.80;;;;;;4957885;29;20439;-78
2022/07/15 12:12:43;;;;;;;0.70;0.60;;;28.00;42.70;;;;;;4956680;29;20462;-77
2022/07/15 12:15:11;;;;;;;0.90;0.70;;;28.30;41.40;;;;;;4956303;29;20971;-77
2022/07/15 12:17:38;;;;;;;0.70;0.63;;;28.60;42.20;;;;;;4956199;28;20447;-77
2022/07/15 12:20:06;;;;;;;0.70;0.70;;;28.60;41.50;;;;;;4956459;29;20871;-77
2022/07/15 12:22:33;;;;;;;0.73;0.60;;;28.70;43.10;;;;;;4956159;29;20494;-76
2022/07/15 12:25:00;;;;;;;0.70;0.63;;;28.90;41.20;;;;;;4957535;28;20891;-78
2022/07/15 12:27:34;;;;;;;0.80;0.60;;;28.70;41.00;;;;;;4956020;29;20459;-78
2022/07/15 12:30:05;;;;;;;0.70;0.60;;;28.60;41.10;;;;;;4957531;29;20462;-79
2022/07/15 12:32:32;;;;;;;0.70;0.70;;;28.70;41.00;;;;;;4957739;29;20526;-77
2022/07/15 12:35:00;;;;;;;0.70;0.60;;;28.60;41.10;;;;;;4955936;29;20458;-77
2022/07/15 12:37:46;;;;;;;0.70;0.70;;;28.30;42.30;;;;;;4956035;29;20442;-78
2022/07/15 12:40:15;;;;;;;0.80;0.60;;;28.40;42.30;;;;;;4955571;29;20423;-79
2022/07/15 12:42:44;;;;;;;0.90;0.60;;;28.70;42.90;;;;;;4955689;28;20498;-78
2022/07/15 12:45:15;;;;;;;0.90;0.77;;;28.80;41.60;;;;;;4956524;29;20461;-77
2022/07/15 12:48:01;;;;;;;0.80;0.70;;;28.90;41.90;;;;;;4955197;29;20439;-78
2022/07/15 12:50:29;;;;;;;1.30;0.70;;;29.00;41.50;;;;;;4955101;29;20494;-77
2022/07/15 12:52:57;;;;;;;0.70;0.67;;;29.00;41.10;;;;;;4955186;29;20883;-76
2022/07/15 12:55:27;;;;;;;0.80;0.70;;;28.90;42.10;;;;;;4954984;29;20435;-78
2022/07/15 12:58:04;;;;;;;0.70;0.70;;;29.00;42.10;;;;;;4955638;29;20454;-77
2022/07/15 13:00:32;;;;;;;0.70;0.60;;;29.10;41.50;;;;;;4955579;28;20431;-78
2022/07/15 13:03:02;;;;;;;0.73;0.63;;;29.00;43.50;;;;;;4921053;29;1014573;-77
2022/07/15 13:05:31;;;;;;;0.87;0.60;;;28.90;41.00;;;;;;4957041;29;20447;-77
2022/07/15 13:07:58;;;;;;;0.80;0.63;;;29.00;41.90;;;;;;4956360;29;20502;-76
2022/07/15 13:10:25;;;;;;;0.70;0.70;;;28.90;40.90;;;;;;4955756;29;20955;-78
2022/07/15 13:12:51;;;;;;;0.70;0.60;;;28.80;42.10;;;;;;4956048;29;20505;-77
2022/07/15 13:15:18;;;;;;;1.20;0.70;;;28.70;42.70;;;;;;4955820;29;20947;-78
2022/07/15 13:17:46;;;;;;;0.77;0.70;;;28.70;43.40;;;;;;4956111;29;20447;-78
2022/07/15 13:20:13;;;;;;;0.70;0.70;;;28.70;42.60;;;;;;4955458;29;20451;-78
2022/07/15 13:22:40;;;;;;;0.70;0.60;;;28.60;43.30;;;;;;4955039;29;20486;-77
2022/07/15 13:25:08;;;;;;;3.57;1.23;;;28.80;42.90;;;;;;4955456;29;20459;-77
2022/07/15 13:27:38;;;;;;;0.70;0.60;;;29.00;41.90;;;;;;4955438;29;20450;-77
2022/07/15 13:30:06;;;;;;;0.70;0.70;;;29.40;42.60;;;;;;4958045;28;20501;-76
2022/07/15 13:32:33;;;;;;;0.70;0.60;;;29.40;42.00;;;;;;4959068;29;20479;-77
2022/07/15 13:35:01;;;;;;;0.70;0.60;;;29.30;42.70;;;;;;4958939;29;20877;-77
2022/07/15 13:37:27;;;;;;;0.80;0.70;;;29.50;40.90;;;;;;4959194;29;20455;-77
2022/07/15 13:39:54;;;;;;;0.93;0.70;;;29.70;40.30;;;;;;4959038;29;20451;-75
2022/07/15 13:42:21;;;;;;;0.90;0.70;;;29.90;40.70;;;;;;4958642;29;20455;-77
2022/07/15 13:44:47;;;;;;;0.80;0.70;;;29.90;40.30;;;;;;4959480;29;20522;-76
2022/07/15 13:47:14;;;;;;;0.80;0.63;;;30.20;40.70;;;;;;4959079;29;20446;-76
2022/07/15 13:52:26;;;;;;;0.70;0.60;;;30.30;39.90;;;;;;4928986;28;20965;-77
2022/07/15 13:54:52;;;;;;;0.70;0.60;;;30.50;39.30;;;;;;4959000;29;20514;-78
2022/07/15 13:57:19;;;;;;;0.67;0.57;;;30.50;39.90;;;;;;4958630;29;20501;-77
2022/07/15 13:59:46;;;;;;;0.67;0.60;;;30.60;39.10;;;;;;4958465;29;20493;-75
2022/07/15 14:02:12;;;;;;;1.20;0.80;;;30.60;39.40;;;;;;4958055;29;20490;-77
2022/07/15 14:04:39;;;;;;;0.70;0.70;;;30.60;39.50;;;;;;4958269;29;20494;-76
2022/07/15 14:07:06;;;;;;;0.70;0.60;;;30.40;39.40;;;;;;4958396;29;20458;-78
2022/07/15 14:09:34;;;;;;;1.00;0.60;;;30.40;39.40;;;;;;4958589;29;20450;-77
2022/07/15 14:12:02;;;;;;;0.70;0.60;;;30.50;40.30;;;;;;4958385;28;20554;-77
2022/07/15 14:14:29;;;;;;;0.70;0.60;;;30.70;39.30;;;;;;4958889;29;20530;-77
2022/07/15 14:16:56;;;;;;;0.60;0.60;;;30.70;39.50;;;;;;4958356;29;20969;-78
2022/07/15 14:19:23;;;;;;;0.70;0.60;;;30.90;40.60;;;;;;4957849;29;20910;-76
2022/07/15 14:21:50;;;;;;;0.70;0.60;;;30.80;39.40;;;;;;4958098;29;20534;-76
2022/07/15 14:24:18;;;;;;;0.70;0.70;;;30.80;39.00;;;;;;4958021;29;20478;-75
2022/07/15 14:26:46;;;;;;;0.70;0.70;;;30.60;38.70;;;;;;4957968;29;20486;-76
2022/07/15 14:29:13;;;;;;;0.70;0.60;;;30.40;39.60;;;;;;4958050;29;20450;-77
2022/07/15 14:31:40;;;;;;;0.83;0.73;;;30.30;40.00;;;;;;4957929;28;20467;-76
2022/07/15 14:34:07;;;;;;;0.70;0.60;;;30.30;39.50;;;;;;4957535;29;20447;-76
2022/07/15 14:36:34;;;;;;;0.70;0.70;;;30.00;39.90;;;;;;4957878;29;20455;-77
2022/07/15 14:39:01;;;;;;;0.70;0.60;;;29.60;40.50;;;;;;4957450;29;20454;-77
2022/07/15 14:41:27;;;;;;;0.70;0.60;;;29.70;41.10;;;;;;4956488;28;20521;-78
2022/07/15 14:43:55;;;;;;;0.70;0.50;;;29.60;40.90;;;;;;4957991;29;20533;-79
2022/07/15 14:46:22;;;;;;;0.80;0.63;;;29.50;40.90;;;;;;4957636;29;20447;-78
2022/07/15 14:48:49;;;;;;;0.70;0.60;;;29.30;41.30;;;;;;4957614;29;20455;-77
2022/07/15 14:51:15;;;;;;;2.17;0.80;;;29.30;41.30;;;;;;4958057;29;20525;-77
2022/07/15 14:53:42;;;;;;;0.87;0.60;;;29.50;40.80;;;;;;4957993;29;20450;-78
2022/07/15 14:56:09;;;;;;;0.80;0.70;;;29.50;40.60;;;;;;4958535;29;20498;-79
2022/07/15 14:58:36;;;;;;;1.03;0.70;;;29.60;40.60;;;;;;4958356;29;20514;-78
2022/07/15 15:01:04;;;;;;;0.90;0.70;;;29.70;40.50;;;;;;4957384;29;20490;-78
2022/07/15 15:03:32;;;;;;;0.70;0.60;;;29.70;40.80;;;;;;4957586;29;20539;-76
2022/07/15 15:05:59;;;;;;;0.73;0.60;;;29.70;40.90;;;;;;4957093;29;20943;-77
2022/07/15 15:08:26;;;;;;;0.80;0.60;;;29.80;40.50;;;;;;4957569;28;20501;-77
2022/07/15 15:10:53;;;;;;;0.70;0.60;;;29.90;40.60;;;;;;4957148;29;20514;-77
2022/07/15 15:13:29;;;;;;;0.60;0.60;;;29.80;40.30;;;;;;4957525;29;20869;-76
2022/07/15 15:15:56;;;;;;;0.70;0.57;;;29.80;39.70;;;;;;4957119;29;20450;-74
2022/07/15 15:18:24;;;;;;;0.80;0.60;;;29.90;40.20;;;;;;4957092;29;20462;-75
2022/07/15 15:20:50;;;;;;;0.70;0.70;;;29.90;39.90;;;;;;4956634;29;20986;-76
2022/07/15 15:23:17;;;;;;;0.90;0.73;;;29.90;40.40;;;;;;4956924;29;20483;-76
2022/07/15 15:28:29;;;;;;;0.70;0.63;;;29.90;40.00;;;;;;4957030;29;20521;-75
2022/07/15 15:30:56;;;;;;;0.70;0.60;;;30.00;39.70;;;;;;4956727;29;20478;-75
2022/07/15 15:33:24;;;;;;;0.77;0.77;;;29.90;39.90;;;;;;4956791;29;20447;-74
2022/07/15 15:35:51;;;;;;;0.70;0.60;;;29.80;39.70;;;;;;4956733;29;20478;-76
2022/07/15 15:38:18;;;;;;;0.90;0.90;;;29.70;39.50;;;;;;4957340;29;20459;-74
2022/07/15 15:40:44;;;;;;;0.70;0.60;;;29.70;40.40;;;;;;4957057;29;20474;-77
2022/07/15 15:43:11;;;;;;;0.70;0.60;;;29.60;39.90;;;;;;4957721;29;20830;-76
2022/07/15 15:45:38;;;;;;;0.83;0.70;;;29.60;39.90;;;;;;4958133;29;20451;-73
2022/07/15 15:48:06;;;;;;;0.80;0.80;;;29.70;40.20;;;;;;4957318;29;20451;-75
2022/07/15 15:50:34;;;;;;;0.70;0.60;;;29.90;39.40;;;;;;4956842;28;20506;-78
2022/07/15 15:53:00;;;;;;;1.77;0.83;;;29.80;39.10;;;;;;4956107;28;20502;-78
2022/07/15 15:55:27;;;;;;;1.10;0.83;;;29.50;39.70;;;;;;4956433;29;20458;-78
2022/07/15 15:57:54;;;;;;;1.00;0.70;;;29.50;39.30;;;;;;4956320;29;20466;-80
2022/07/15 16:00:21;;;;;;;0.70;0.60;;;29.40;39.90;;;;;;4956520;29;20510;-78
2022/07/15 16:02:48;;;;;;;0.90;0.60;;;29.20;39.90;;;;;;4955855;29;20486;-79
2022/07/15 16:05:15;;;;;;;1.77;0.70;;;28.90;41.00;;;;;;4956051;29;20578;-78
2022/07/15 16:07:43;;;;;;;0.70;0.70;;;29.00;40.10;;;;;;4956342;29;20451;-79
2022/07/15 16:10:12;;;;;;;0.70;0.70;;;28.90;39.80;;;;;;4956277;29;20455;-78
2022/07/15 16:12:38;;;;;;;0.70;0.60;;;28.80;40.00;;;;;;4956245;29;20471;-79
2022/07/15 16:15:06;;;;;;;0.70;0.50;;;28.70;40.90;;;;;;4955822;29;21005;-78